Time;durP1;ratioP1;P1;durP2;ratioP2;P2;SDS_P1;SDS_P2;PMS_P1;PMS_P2;Temp;Humidity;BMP_temperature;BMP_pressure;BME280_temperature;BME280_humidity;BME280_pressure;Samples;Min_cycle;Max_cycle;Signal;HPM_P1;HPM_P2
2023/08/16 00:01:39;;;;;;;2.72;1.77;;;24.40;55.00;;;;;;5030216;28;20087;-49
2023/08/16 00:04:06;;;;;;;2.70;2.10;;;24.40;55.20;;;;;;5028618;28;20099;-51
2023/08/16 00:06:35;;;;;;;2.90;2.00;;;24.30;55.30;;;;;;5028944;28;20377;-50
2023/08/16 00:09:02;;;;;;;4.20;2.20;;;24.30;55.20;;;;;;5029898;28;20029;-52
2023/08/16 00:11:31;;;;;;;2.60;2.15;;;24.20;55.50;;;;;;5028299;28;20061;-49
2023/08/16 00:14:04;;;;;;;4.13;1.73;;;24.20;55.60;;;;;;5029154;28;20045;-51
2023/08/16 00:16:30;;;;;;;4.28;1.92;;;24.20;56.00;;;;;;5028434;28;20072;-50
2023/08/16 00:18:57;;;;;;;2.78;2.25;;;24.10;56.00;;;;;;5028553;28;20064;-49
2023/08/16 00:21:27;;;;;;;3.95;1.98;;;24.10;56.00;;;;;;5027881;28;20045;-53
2023/08/16 00:23:55;;;;;;;3.05;1.80;;;24.00;56.40;;;;;;5028424;28;20041;-52
2023/08/16 00:26:22;;;;;;;2.38;1.90;;;24.00;57.00;;;;;;5028661;28;20045;-49
2023/08/16 00:28:51;;;;;;;3.47;1.85;;;23.90;56.40;;;;;;5010786;28;20307;-50
2023/08/16 00:31:19;;;;;;;2.63;2.42;;;23.80;56.50;;;;;;5012546;28;20095;-50
2023/08/16 00:33:50;;;;;;;4.97;2.45;;;23.80;56.70;;;;;;5010988;28;20132;-53
2023/08/16 00:36:18;;;;;;;3.92;2.22;;;23.80;57.10;;;;;;5010956;28;20041;-52
2023/08/16 00:38:45;;;;;;;3.97;2.17;;;23.70;57.30;;;;;;5029414;28;20038;-49
2023/08/16 00:41:15;;;;;;;3.80;2.08;;;23.70;57.40;;;;;;5028394;28;20044;-51
2023/08/16 00:43:43;;;;;;;3.83;2.97;;;23.70;57.40;;;;;;5010424;28;20120;-52
2023/08/16 00:46:16;;;;;;;2.28;2.08;;;23.70;57.50;;;;;;5010617;28;20069;-52
2023/08/16 00:48:44;;;;;;;4.68;1.73;;;23.70;57.80;;;;;;5006656;28;20049;-48
2023/08/16 00:51:16;;;;;;;2.55;1.92;;;23.70;57.80;;;;;;5010917;28;20765;-51
2023/08/16 00:53:46;;;;;;;3.90;2.25;;;23.70;58.00;;;;;;5027570;28;20488;-51
2023/08/16 00:56:16;;;;;;;2.88;2.13;;;23.70;58.00;;;;;;5009101;28;20068;-52
2023/08/16 00:58:43;;;;;;;3.13;2.17;;;23.70;57.90;;;;;;5010489;28;20041;-50
2023/08/16 01:01:12;;;;;;;3.97;2.53;;;23.70;57.90;;;;;;5002401;28;20037;-52
2023/08/16 01:03:43;;;;;;;2.65;2.03;;;23.70;58.00;;;;;;5029596;28;20519;-48
2023/08/16 01:06:14;;;;;;;2.22;2.03;;;23.70;58.10;;;;;;5027925;28;20068;-52
2023/08/16 01:08:41;;;;;;;2.70;2.10;;;23.70;58.10;;;;;;5002652;28;20491;-50
2023/08/16 01:11:18;;;;;;;1.98;1.88;;;23.70;57.80;;;;;;5019887;28;20042;-51
2023/08/16 01:14:05;;;;;;;2.72;1.65;;;23.70;58.40;;;;;;5009789;28;20042;-53
2023/08/16 01:16:37;;;;;;;3.17;2.88;;;23.60;58.50;;;;;;5018507;28;20033;-51
2023/08/16 01:19:10;;;;;;;5.57;2.50;;;23.60;58.20;;;;;;5024942;28;20111;-51
2023/08/16 01:21:46;;;;;;;3.47;1.83;;;23.60;58.40;;;;;;5027008;28;20042;-52
2023/08/16 01:24:31;;;;;;;4.00;2.35;;;23.60;58.50;;;;;;5025776;28;20064;-52
2023/08/16 01:26:58;;;;;;;3.83;2.50;;;23.60;58.60;;;;;;5027799;28;20045;-52
2023/08/16 01:29:32;;;;;;;2.58;2.25;;;23.60;58.20;;;;;;5026506;28;20030;-53
2023/08/16 01:31:59;;;;;;;2.47;2.00;;;23.50;58.30;;;;;;5027995;28;20499;-52
2023/08/16 01:34:25;;;;;;;2.28;2.08;;;23.50;58.40;;;;;;4993330;28;20601;-52
2023/08/16 01:36:59;;;;;;;2.45;2.00;;;23.40;58.50;;;;;;5005251;28;20041;-49
2023/08/16 01:39:33;;;;;;;3.25;2.00;;;23.40;58.60;;;;;;5027705;28;20412;-53
2023/08/16 01:42:02;;;;;;;3.13;2.47;;;23.40;58.70;;;;;;5021438;28;20045;-47
2023/08/16 01:44:38;;;;;;;4.15;2.50;;;23.30;58.80;;;;;;4995552;28;20041;-51
2023/08/16 01:47:05;;;;;;;4.13;2.30;;;23.30;58.90;;;;;;5029238;28;20065;-52
2023/08/16 01:49:32;;;;;;;3.05;2.78;;;23.30;59.20;;;;;;5017537;28;20034;-52
2023/08/16 01:52:02;;;;;;;4.00;2.72;;;23.20;59.40;;;;;;5005664;28;20045;-48
2023/08/16 01:54:38;;;;;;;3.28;2.58;;;23.20;59.60;;;;;;5004748;28;20516;-49
2023/08/16 01:57:05;;;;;;;2.70;2.28;;;23.20;59.70;;;;;;5020478;28;20496;-50
2023/08/16 01:59:34;;;;;;;2.78;2.13;;;23.20;59.60;;;;;;5004826;28;20095;-51
2023/08/16 02:02:01;;;;;;;3.03;2.13;;;23.20;59.80;;;;;;5020829;28;20049;-52
2023/08/16 02:04:31;;;;;;;2.78;2.20;;;23.20;59.60;;;;;;5007430;28;20069;-49
2023/08/16 02:06:57;;;;;;;4.60;3.13;;;23.20;60.40;;;;;;5012526;28;20045;-50
2023/08/16 02:09:30;;;;;;;4.15;2.40;;;23.20;59.60;;;;;;5013430;28;20518;-51
2023/08/16 02:11:57;;;;;;;3.25;2.30;;;23.10;59.50;;;;;;5015072;28;20038;-51
2023/08/16 02:14:24;;;;;;;2.17;2.00;;;23.20;59.50;;;;;;5010238;28;20046;-52
2023/08/16 02:16:51;;;;;;;6.38;2.22;;;23.10;59.40;;;;;;5005252;28;20415;-49
2023/08/16 02:19:18;;;;;;;3.03;2.47;;;23.20;59.50;;;;;;5029589;28;20058;-53
2023/08/16 02:21:44;;;;;;;3.88;2.22;;;23.20;59.50;;;;;;5020808;28;20073;-49
2023/08/16 02:24:19;;;;;;;4.85;2.17;;;23.20;59.30;;;;;;5016149;28;20046;-52
2023/08/16 02:26:55;;;;;;;4.10;2.10;;;23.20;59.40;;;;;;5029831;28;20245;-51
2023/08/16 02:29:22;;;;;;;3.78;2.30;;;23.20;59.80;;;;;;5030172;28;20038;-48
2023/08/16 02:31:49;;;;;;;4.82;2.08;;;23.20;59.60;;;;;;5031421;28;20430;-48
2023/08/16 02:34:19;;;;;;;2.28;2.10;;;23.20;59.50;;;;;;5016644;28;20042;-53
2023/08/16 02:36:49;;;;;;;4.60;2.28;;;23.20;59.40;;;;;;5021712;28;20038;-50
2023/08/16 02:39:18;;;;;;;3.63;2.22;;;23.20;59.30;;;;;;5025107;28;20072;-50
2023/08/16 02:41:45;;;;;;;2.80;2.53;;;23.20;59.00;;;;;;5026366;28;20076;-52
2023/08/16 02:44:24;;;;;;;4.45;2.17;;;23.20;59.00;;;;;;5015174;28;20479;-52
2023/08/16 02:46:51;;;;;;;5.53;3.03;;;23.10;59.20;;;;;;4998876;28;20042;-48
2023/08/16 02:49:20;;;;;;;2.92;2.42;;;23.20;59.20;;;;;;5030645;28;20064;-49
2023/08/16 02:51:49;;;;;;;4.05;2.58;;;23.10;59.10;;;;;;5024500;28;20042;-49
2023/08/16 02:54:16;;;;;;;4.78;2.40;;;23.10;59.10;;;;;;5016171;28;20045;-52
2023/08/16 02:56:42;;;;;;;2.45;2.03;;;23.10;59.30;;;;;;5029672;28;20591;-48
2023/08/16 02:59:14;;;;;;;3.72;2.15;;;23.00;59.40;;;;;;5001855;28;20450;-51
2023/08/16 03:01:43;;;;;;;2.30;2.10;;;23.00;59.60;;;;;;5019537;28;20045;-51
2023/08/16 03:04:10;;;;;;;2.17;1.70;;;23.00;59.60;;;;;;5021034;28;20084;-50
2023/08/16 03:06:41;;;;;;;2.90;2.08;;;23.00;59.80;;;;;;5011157;28;20634;-52
2023/08/16 03:09:10;;;;;;;4.32;2.33;;;22.90;60.00;;;;;;5012438;28;20068;-52
2023/08/16 03:11:37;;;;;;;3.38;2.60;;;22.90;60.00;;;;;;5030785;28;20046;-51
2023/08/16 03:14:09;;;;;;;5.60;2.37;;;22.90;60.00;;;;;;5007424;28;20083;-52
2023/08/16 03:16:35;;;;;;;3.53;2.05;;;22.90;60.30;;;;;;4998178;28;20076;-53
2023/08/16 03:19:03;;;;;;;4.53;2.60;;;22.90;60.60;;;;;;5026627;28;20639;-48
2023/08/16 03:21:33;;;;;;;2.50;2.20;;;22.90;60.40;;;;;;5029027;28;20049;-49
2023/08/16 03:24:06;;;;;;;4.32;2.38;;;22.90;60.60;;;;;;5001608;28;20041;-52
2023/08/16 03:26:33;;;;;;;3.38;2.60;;;22.90;60.60;;;;;;5000382;28;20045;-52
2023/08/16 03:29:03;;;;;;;3.00;2.63;;;22.80;60.60;;;;;;5008705;28;20036;-51
2023/08/16 03:31:38;;;;;;;4.97;2.55;;;22.80;60.70;;;;;;5005937;28;20446;-49
2023/08/16 03:34:05;;;;;;;4.57;3.53;;;22.80;60.80;;;;;;5000180;28;20038;-49
2023/08/16 03:36:34;;;;;;;4.72;3.20;;;22.80;60.90;;;;;;5007589;28;20045;-48
2023/08/16 03:39:05;;;;;;;4.65;3.17;;;22.70;61.10;;;;;;5030040;28;20046;-51
2023/08/16 03:41:33;;;;;;;6.05;4.10;;;22.70;61.30;;;;;;5003032;28;20053;-50
2023/08/16 03:44:06;;;;;;;5.22;4.18;;;22.70;61.60;;;;;;5007847;28;20080;-51
2023/08/16 03:46:34;;;;;;;6.15;4.22;;;22.70;62.00;;;;;;5027708;28;20065;-48
2023/08/16 03:49:05;;;;;;;5.40;3.85;;;22.70;61.90;;;;;;5030476;28;20029;-52
2023/08/16 03:51:38;;;;;;;4.80;4.25;;;22.70;62.40;;;;;;5021614;28;20049;-52
2023/08/16 03:54:08;;;;;;;5.63;4.18;;;22.70;62.50;;;;;;5014174;28;20121;-51
2023/08/16 03:56:34;;;;;;;7.35;5.15;;;22.70;62.50;;;;;;5005904;28;20091;-53
2023/08/16 03:59:04;;;;;;;6.70;5.90;;;22.70;62.80;;;;;;5008200;28;20045;-51
2023/08/16 04:01:30;;;;;;;6.70;6.10;;;22.60;62.90;;;;;;5023642;28;20720;-48
2023/08/16 04:04:02;;;;;;;6.90;5.38;;;22.70;63.10;;;;;;5009664;28;20042;-51
2023/08/16 04:06:31;;;;;;;6.63;5.93;;;22.70;63.30;;;;;;5023710;28;20046;-49
2023/08/16 04:09:01;;;;;;;8.57;6.40;;;22.80;63.40;;;;;;5028443;28;20073;-49
2023/08/16 04:11:30;;;;;;;7.95;6.18;;;22.80;63.40;;;;;;5017587;28;20542;-50
2023/08/16 04:13:58;;;;;;;8.35;7.22;;;22.80;63.30;;;;;;5003090;28;20064;-53
2023/08/16 04:16:32;;;;;;;8.35;6.07;;;22.80;63.40;;;;;;5003404;28;20427;-48
2023/08/16 04:18:59;;;;;;;8.80;6.40;;;22.80;63.50;;;;;;5001237;28;20136;-51
2023/08/16 04:21:26;;;;;;;7.38;6.38;;;22.80;63.30;;;;;;5019515;28;20431;-48
2023/08/16 04:23:55;;;;;;;7.88;6.38;;;22.80;63.40;;;;;;5002949;28;20067;-51
2023/08/16 04:26:21;;;;;;;7.00;6.00;;;22.80;63.50;;;;;;5007721;28;20069;-50
2023/08/16 04:28:49;;;;;;;7.75;5.10;;;22.80;63.60;;;;;;5008381;28;20049;-52
2023/08/16 04:31:18;;;;;;;7.32;5.35;;;22.80;63.70;;;;;;5005401;28;20056;-50
2023/08/16 04:33:45;;;;;;;5.90;5.40;;;22.90;63.90;;;;;;5012680;28;20041;-50
2023/08/16 04:36:16;;;;;;;6.15;5.30;;;22.80;63.80;;;;;;5001177;28;20042;-52
2023/08/16 04:38:43;;;;;;;6.03;4.50;;;22.90;63.90;;;;;;5008261;28;20041;-53
2023/08/16 04:41:10;;;;;;;4.60;4.13;;;22.90;63.70;;;;;;5003782;28;20492;-52
2023/08/16 04:43:39;;;;;;;5.60;4.55;;;22.90;63.70;;;;;;5005135;28;20053;-54
2023/08/16 04:46:10;;;;;;;4.93;4.20;;;22.90;63.60;;;;;;5022750;28;20124;-51
2023/08/16 04:48:47;;;;;;;3.53;3.22;;;22.90;63.60;;;;;;5026614;28;20045;-53
2023/08/16 04:51:13;;;;;;;4.60;3.97;;;22.90;63.70;;;;;;5004246;28;20074;-53
2023/08/16 04:53:40;;;;;;;4.97;3.85;;;22.90;63.60;;;;;;5010234;28;20042;-53
2023/08/16 04:56:08;;;;;;;5.75;3.38;;;22.90;63.70;;;;;;5004986;28;20041;-53
2023/08/16 04:58:41;;;;;;;3.72;3.30;;;22.90;63.70;;;;;;5006182;28;20053;-52
2023/08/16 05:01:14;;;;;;;5.10;2.90;;;22.90;63.80;;;;;;5025291;28;20074;-53
2023/08/16 05:03:50;;;;;;;4.82;3.00;;;22.90;63.70;;;;;;5008576;28;20041;-52
2023/08/16 05:06:18;;;;;;;4.00;2.95;;;22.90;63.60;;;;;;5020914;28;20124;-52
2023/08/16 05:08:47;;;;;;;2.35;2.15;;;23.00;63.70;;;;;;5005145;28;20096;-53
2023/08/16 05:11:14;;;;;;;3.63;2.45;;;23.00;63.60;;;;;;5016356;28;20096;-52
2023/08/16 05:13:41;;;;;;;4.22;2.60;;;23.00;63.60;;;;;;4999308;28;20111;-53
2023/08/16 05:16:08;;;;;;;3.10;2.75;;;23.00;63.70;;;;;;5028109;28;20123;-53
2023/08/16 05:18:35;;;;;;;4.22;2.78;;;23.00;63.50;;;;;;5010330;28;20467;-52
2023/08/16 05:21:03;;;;;;;3.25;2.97;;;23.10;63.60;;;;;;5011032;28;20053;-52
2023/08/16 05:23:29;;;;;;;2.70;2.15;;;23.10;63.60;;;;;;5022327;28;20041;-52
2023/08/16 05:25:57;;;;;;;2.65;2.45;;;23.10;63.50;;;;;;5020511;28;20400;-52
2023/08/16 05:28:24;;;;;;;4.82;2.95;;;23.10;63.50;;;;;;5018125;28;20042;-53
2023/08/16 05:30:51;;;;;;;4.07;2.88;;;23.10;63.30;;;;;;5024759;28;20717;-51
2023/08/16 05:33:20;;;;;;;3.85;2.40;;;23.10;63.40;;;;;;5023480;28;20574;-53
2023/08/16 05:35:50;;;;;;;3.55;2.65;;;23.20;63.30;;;;;;5021363;28;20087;-48
2023/08/16 05:38:18;;;;;;;2.88;2.58;;;23.20;63.20;;;;;;5016303;28;20077;-53
2023/08/16 05:40:44;;;;;;;2.67;2.40;;;23.20;63.20;;;;;;5026405;28;20045;-53
2023/08/16 05:43:11;;;;;;;3.78;2.08;;;23.30;63.30;;;;;;5019137;28;20062;-53
2023/08/16 05:45:43;;;;;;;2.63;2.13;;;23.30;63.20;;;;;;5022575;28;20140;-49
2023/08/16 05:48:13;;;;;;;3.30;2.40;;;23.30;63.00;;;;;;5020711;28;20033;-53
2023/08/16 05:50:41;;;;;;;3.35;2.53;;;23.30;62.80;;;;;;5030671;28;20120;-50
2023/08/16 05:53:11;;;;;;;2.50;2.03;;;23.30;62.60;;;;;;5020013;28;20042;-53
2023/08/16 05:55:40;;;;;;;3.47;2.42;;;23.40;62.50;;;;;;5026757;28;20153;-52
2023/08/16 05:58:09;;;;;;;2.55;2.35;;;23.30;62.50;;;;;;5027530;28;20056;-51
2023/08/16 06:00:36;;;;;;;3.25;2.50;;;23.30;62.50;;;;;;5029831;28;20160;-49
2023/08/16 06:03:03;;;;;;;3.33;2.38;;;23.30;62.50;;;;;;5017484;28;20046;-52
2023/08/16 06:05:33;;;;;;;3.20;2.70;;;23.30;62.50;;;;;;5013401;28;20125;-53
2023/08/16 06:08:03;;;;;;;3.25;2.60;;;23.30;62.70;;;;;;5013388;28;20464;-53
2023/08/16 06:10:30;;;;;;;3.65;2.25;;;23.30;62.70;;;;;;5027596;28;20076;-53
2023/08/16 06:13:05;;;;;;;4.32;2.63;;;23.20;62.80;;;;;;5029600;28;20045;-51
2023/08/16 06:15:35;;;;;;;3.47;2.10;;;23.20;62.90;;;;;;5021181;28;20119;-49
2023/08/16 06:18:02;;;;;;;3.63;2.60;;;23.10;63.10;;;;;;5030060;28;20116;-50
2023/08/16 06:20:29;;;;;;;2.75;2.30;;;23.10;63.00;;;;;;5029668;28;20080;-49
2023/08/16 06:22:58;;;;;;;3.90;2.35;;;23.10;63.00;;;;;;5029028;28;20408;-51
2023/08/16 06:25:26;;;;;;;2.35;2.25;;;23.10;63.00;;;;;;5023605;28;20076;-52
2023/08/16 06:27:52;;;;;;;2.70;2.20;;;23.10;63.20;;;;;;5027329;28;20076;-53
2023/08/16 06:30:19;;;;;;;2.55;2.15;;;23.10;63.20;;;;;;5031819;28;20468;-49
2023/08/16 06:32:48;;;;;;;4.38;2.53;;;23.10;63.30;;;;;;5030720;28;20056;-50
2023/08/16 06:35:15;;;;;;;2.30;2.10;;;23.20;63.50;;;;;;5023498;28;20056;-53
2023/08/16 06:37:46;;;;;;;3.30;2.35;;;23.20;63.50;;;;;;5030941;28;20054;-53
2023/08/16 06:40:12;;;;;;;3.30;2.35;;;23.30;63.50;;;;;;5012668;28;20419;-52
2023/08/16 06:42:42;;;;;;;4.03;2.50;;;23.30;63.20;;;;;;5012040;28;20073;-50
2023/08/16 06:45:12;;;;;;;4.25;3.72;;;23.40;63.10;;;;;;5026201;28;20034;-50
2023/08/16 06:47:38;;;;;;;3.40;2.33;;;23.40;63.00;;;;;;5031357;28;20072;-49
2023/08/16 06:50:06;;;;;;;3.00;2.65;;;23.50;62.90;;;;;;5025688;28;20065;-53
2023/08/16 06:52:37;;;;;;;3.08;2.67;;;23.50;62.80;;;;;;5023955;28;20045;-50
2023/08/16 06:55:05;;;;;;;6.00;2.88;;;23.50;62.40;;;;;;5031859;28;20567;-51
2023/08/16 06:57:38;;;;;;;3.55;2.63;;;23.60;62.30;;;;;;5024051;28;20065;-52
2023/08/16 07:00:07;;;;;;;4.77;2.77;;;23.60;62.10;;;;;;5026860;28;20076;-53
2023/08/16 07:02:34;;;;;;;7.47;2.53;;;23.60;62.20;;;;;;5024869;28;20464;-52
2023/08/16 07:05:08;;;;;;;4.13;3.00;;;23.60;62.90;;;;;;4994762;28;20306;-49
2023/08/16 07:07:42;;;;;;;4.50;3.53;;;23.60;62.50;;;;;;5029320;28;20415;-51
2023/08/16 07:10:09;;;;;;;3.97;3.15;;;23.50;62.60;;;;;;5020398;28;20100;-52
2023/08/16 07:12:36;;;;;;;3.50;3.10;;;23.50;62.50;;;;;;5011756;28;20061;-52
2023/08/16 07:15:06;;;;;;;4.47;3.42;;;23.50;62.70;;;;;;5013306;28;20124;-52
2023/08/16 07:17:32;;;;;;;3.95;3.00;;;23.50;63.10;;;;;;5026732;28;20144;-51
2023/08/16 07:20:01;;;;;;;3.45;3.15;;;23.50;63.10;;;;;;5007706;28;20048;-52
2023/08/16 07:22:28;;;;;;;4.97;2.75;;;23.40;63.40;;;;;;5027938;28;20556;-52
2023/08/16 07:24:56;;;;;;;3.03;2.72;;;23.40;63.30;;;;;;5016630;28;20056;-53
2023/08/16 07:27:25;;;;;;;4.03;3.17;;;23.40;63.30;;;;;;5030996;28;20045;-55
2023/08/16 07:29:54;;;;;;;4.78;3.47;;;23.40;63.30;;;;;;5029992;28;20037;-50
2023/08/16 07:32:24;;;;;;;4.88;3.78;;;23.40;63.40;;;;;;5024270;28;20860;-51
2023/08/16 07:34:53;;;;;;;5.22;3.95;;;23.50;63.30;;;;;;5024713;28;20046;-52
2023/08/16 07:37:21;;;;;;;4.07;3.50;;;23.50;63.50;;;;;;5027246;28;20065;-52
2023/08/16 07:39:57;;;;;;;4.20;3.80;;;23.50;63.50;;;;;;5028706;28;20041;-51
2023/08/16 07:42:29;;;;;;;4.03;3.63;;;23.50;63.40;;;;;;5024314;28;20085;-52
2023/08/16 07:44:57;;;;;;;5.07;3.33;;;23.50;63.50;;;;;;5025844;28;20064;-52
2023/08/16 07:47:24;;;;;;;6.88;4.22;;;23.60;63.70;;;;;;5028562;28;20111;-53
2023/08/16 07:49:51;;;;;;;4.80;3.67;;;23.60;63.50;;;;;;5029752;28;20041;-50
2023/08/16 07:52:21;;;;;;;4.85;3.58;;;23.70;63.50;;;;;;5023111;28;20041;-52
2023/08/16 07:54:48;;;;;;;3.72;2.97;;;23.60;63.40;;;;;;5025405;28;20037;-52
2023/08/16 07:57:15;;;;;;;3.55;3.17;;;23.70;63.40;;;;;;5024541;28;20507;-52
2023/08/16 07:59:44;;;;;;;3.88;3.55;;;23.70;63.50;;;;;;5027945;28;20071;-51
2023/08/16 08:02:12;;;;;;;4.55;3.35;;;23.70;63.50;;;;;;5023643;28;20113;-50
2023/08/16 08:04:40;;;;;;;3.47;3.05;;;23.80;64.10;;;;;;5023473;28;20045;-52
2023/08/16 08:07:11;;;;;;;7.13;3.65;;;23.90;63.70;;;;;;5026660;28;20064;-49
2023/08/16 08:09:37;;;;;;;4.40;3.85;;;23.90;63.30;;;;;;5028536;28;20073;-52
2023/08/16 08:12:06;;;;;;;4.07;3.70;;;24.10;63.00;;;;;;5018561;28;20050;-53
2023/08/16 08:14:33;;;;;;;3.70;3.40;;;24.10;62.60;;;;;;5020887;28;20041;-50
2023/08/16 08:17:02;;;;;;;4.65;3.90;;;24.10;62.40;;;;;;5030271;28;20120;-52
2023/08/16 08:19:33;;;;;;;3.45;3.15;;;24.20;62.50;;;;;;5024856;28;20478;-53
2023/08/16 08:22:00;;;;;;;6.97;3.40;;;24.20;62.70;;;;;;5024765;28;20120;-51
2023/08/16 08:24:28;;;;;;;4.63;3.45;;;24.30;62.30;;;;;;5025768;28;20092;-52
2023/08/16 08:26:58;;;;;;;3.88;3.58;;;24.30;62.50;;;;;;5026430;28;20064;-50
2023/08/16 08:29:25;;;;;;;4.70;3.47;;;24.30;62.50;;;;;;5025439;28;20057;-49
2023/08/16 08:31:55;;;;;;;4.63;4.22;;;24.50;62.50;;;;;;5030181;28;20038;-53
2023/08/16 08:34:24;;;;;;;4.57;4.05;;;24.60;62.70;;;;;;5026368;28;20041;-52
2023/08/16 08:36:52;;;;;;;4.70;3.65;;;24.60;61.80;;;;;;5025023;28;20045;-48
2023/08/16 08:39:19;;;;;;;3.88;3.20;;;24.70;61.90;;;;;;5029121;28;20050;-50
2023/08/16 08:41:47;;;;;;;6.65;4.07;;;24.80;61.80;;;;;;5024895;28;20053;-50
2023/08/16 08:44:18;;;;;;;4.18;3.42;;;24.90;61.60;;;;;;5029229;28;20610;-52
2023/08/16 08:46:48;;;;;;;3.65;2.90;;;24.90;61.50;;;;;;5028104;28;20120;-52
2023/08/16 08:49:42;;;;;;;4.18;2.88;;;25.00;61.20;;;;;;5023518;28;20508;-51
2023/08/16 08:52:10;;;;;;;6.13;3.60;;;25.10;61.50;;;;;;5024425;28;20411;-53
2023/08/16 08:54:37;;;;;;;5.47;4.07;;;25.10;61.60;;;;;;5026597;28;20539;-53
2023/08/16 08:57:05;;;;;;;9.20;3.72;;;25.20;61.20;;;;;;5028712;28;20049;-52
2023/08/16 08:59:33;;;;;;;4.22;3.75;;;25.30;61.20;;;;;;5025656;28;20048;-53
2023/08/16 09:02:06;;;;;;;4.97;3.70;;;25.40;61.50;;;;;;5027908;28;20069;-51
2023/08/16 09:04:33;;;;;;;4.97;4.10;;;25.60;61.50;;;;;;5018067;28;20064;-53
2023/08/16 09:07:11;;;;;;;5.35;3.67;;;25.60;61.30;;;;;;5025386;28;20036;-52
2023/08/16 09:09:39;;;;;;;3.95;3.55;;;25.70;61.10;;;;;;5025570;28;20430;-51
2023/08/16 09:12:08;;;;;;;5.53;3.38;;;25.80;60.50;;;;;;5028142;28;20116;-53
2023/08/16 09:14:38;;;;;;;6.38;3.72;;;25.90;60.20;;;;;;5023263;28;20515;-53
2023/08/16 09:17:05;;;;;;;5.80;3.92;;;26.00;60.20;;;;;;5011650;28;20073;-53
2023/08/16 09:19:45;;;;;;;5.60;3.88;;;26.00;60.00;;;;;;5022587;28;20143;-52
2023/08/16 09:22:15;;;;;;;5.25;4.75;;;26.10;59.60;;;;;;5027205;28;20048;-52
2023/08/16 09:24:44;;;;;;;4.93;4.47;;;26.10;59.40;;;;;;5030893;28;20670;-52
2023/08/16 09:27:16;;;;;;;5.85;4.18;;;26.10;59.10;;;;;;5032304;28;20135;-52
2023/08/16 09:29:45;;;;;;;5.07;3.87;;;26.10;59.60;;;;;;5032282;28;20121;-53
2023/08/16 09:32:12;;;;;;;5.30;4.30;;;26.10;59.20;;;;;;5030207;28;20276;-52
2023/08/16 09:34:44;;;;;;;5.38;3.53;;;26.20;59.40;;;;;;5031971;28;20448;-51
2023/08/16 09:37:15;;;;;;;3.80;3.08;;;26.20;59.30;;;;;;5029057;28;20099;-53
2023/08/16 09:39:43;;;;;;;3.30;3.00;;;26.20;59.50;;;;;;5030935;28;20056;-53
2023/08/16 09:42:11;;;;;;;4.40;3.40;;;26.30;59.30;;;;;;5031983;28;20033;-52
2023/08/16 09:44:40;;;;;;;5.32;3.17;;;26.40;58.80;;;;;;5031598;28;20041;-52
2023/08/16 09:47:16;;;;;;;5.10;3.60;;;26.50;58.80;;;;;;5028698;28;20061;-52
2023/08/16 09:49:50;;;;;;;4.25;3.63;;;26.60;58.50;;;;;;5033267;28;20045;-52
2023/08/16 09:52:23;;;;;;;3.72;3.35;;;26.60;58.20;;;;;;5031941;28;20042;-53
2023/08/16 09:54:55;;;;;;;4.65;3.63;;;26.70;58.00;;;;;;5031222;28;20057;-52
2023/08/16 09:57:21;;;;;;;2.90;2.70;;;26.80;58.10;;;;;;5032376;28;20033;-52
2023/08/16 09:59:52;;;;;;;3.60;3.20;;;26.80;58.00;;;;;;5030944;28;20038;-52
2023/08/16 10:02:20;;;;;;;5.35;3.80;;;26.90;57.90;;;;;;5029603;28;20131;-53
2023/08/16 10:05:16;;;;;;;3.72;3.33;;;27.00;57.60;;;;;;5022306;28;20048;-52
2023/08/16 10:07:50;;;;;;;3.25;2.92;;;27.10;57.70;;;;;;5031801;28;20034;-51
2023/08/16 10:10:19;;;;;;;;;;;27.20;58.10;;;;;;5029528;28;20046;-53
2023/08/16 10:12:46;;;;;;;5.65;3.95;;;27.30;58.10;;;;;;5011896;28;20020;-52
2023/08/16 10:15:14;;;;;;;5.05;3.78;;;27.50;57.40;;;;;;5023190;28;20105;-53
2023/08/16 10:17:50;;;;;;;3.33;2.90;;;27.50;57.20;;;;;;5032512;28;20047;-52
2023/08/16 10:20:29;;;;;;;4.68;3.88;;;27.60;56.90;;;;;;5030440;28;20041;-53
2023/08/16 10:23:00;;;;;;;4.07;3.78;;;27.70;56.40;;;;;;5030138;28;20107;-52
2023/08/16 10:25:44;;;;;;;4.80;3.72;;;27.80;56.60;;;;;;5031654;28;20068;-52
2023/08/16 10:28:16;;;;;;;4.75;3.85;;;27.90;56.60;;;;;;5030272;28;20038;-52
2023/08/16 10:30:50;;;;;;;5.30;3.08;;;28.00;56.60;;;;;;5031128;28;20037;-52
2023/08/16 10:33:46;;;;;;;3.65;3.05;;;28.10;56.60;;;;;;5023963;28;20561;-51
2023/08/16 10:36:16;;;;;;;5.07;3.83;;;28.20;56.30;;;;;;5030653;28;20052;-52
2023/08/16 10:38:45;;;;;;;5.88;3.95;;;28.40;55.70;;;;;;5030202;28;20065;-53
2023/08/16 10:41:15;;;;;;;4.13;3.10;;;28.50;55.30;;;;;;5031708;28;20065;-53
2023/08/16 10:43:50;;;;;;;4.75;3.40;;;28.60;54.70;;;;;;5026318;28;20030;-52
2023/08/16 10:46:52;;;;;;;2.85;2.65;;;28.60;55.40;;;;;;5028581;28;20590;-53
2023/08/16 10:49:20;;;;;;;4.25;2.70;;;28.70;55.10;;;;;;5028835;28;20133;-52
2023/08/16 10:51:52;;;;;;;2.78;2.42;;;28.90;55.50;;;;;;5031779;28;20557;-50
2023/08/16 10:54:35;;;;;;;4.00;3.58;;;29.00;54.90;;;;;;5029719;28;20156;-52
2023/08/16 10:57:14;;;;;;;3.45;3.15;;;29.10;53.90;;;;;;5029161;28;20476;-53
2023/08/16 10:59:42;;;;;;;3.45;2.88;;;29.10;53.70;;;;;;5022723;28;20041;-53
2023/08/16 11:02:40;;;;;;;4.68;2.88;;;29.20;53.60;;;;;;5015399;28;20060;-53
2023/08/16 11:05:20;;;;;;;4.32;2.70;;;29.20;53.40;;;;;;5029020;28;20574;-52
2023/08/16 11:07:47;;;;;;;3.72;2.90;;;29.20;53.20;;;;;;5024719;28;20041;-49
2023/08/16 11:10:18;;;;;;;4.20;3.20;;;29.10;53.00;;;;;;5032098;28;20068;-51
2023/08/16 11:12:59;;;;;;;4.03;2.90;;;29.00;52.80;;;;;;5024196;28;20042;-49
2023/08/16 11:15:27;;;;;;;4.57;2.88;;;29.00;53.00;;;;;;5029849;28;20048;-50
2023/08/16 11:17:59;;;;;;;5.22;3.17;;;29.00;52.90;;;;;;5030467;28;20048;-51
2023/08/16 11:20:36;;;;;;;3.50;3.20;;;29.00;52.90;;;;;;5031390;28;20048;-51
2023/08/16 11:23:08;;;;;;;3.47;2.90;;;29.00;53.10;;;;;;5024922;28;20057;-49
2023/08/16 11:25:35;;;;;;;3.95;3.35;;;29.00;53.00;;;;;;5025747;28;20077;-50
2023/08/16 11:28:05;;;;;;;3.13;2.88;;;29.00;52.50;;;;;;5026624;28;20431;-49
2023/08/16 11:30:32;;;;;;;4.88;2.90;;;29.00;53.00;;;;;;5029595;28;20026;-48
2023/08/16 11:33:00;;;;;;;4.25;3.20;;;29.00;52.80;;;;;;5023059;28;20041;-48
2023/08/16 11:35:27;;;;;;;3.33;3.03;;;29.00;53.00;;;;;;5028983;28;20124;-53
2023/08/16 11:37:55;;;;;;;3.88;3.45;;;28.90;52.80;;;;;;5011348;28;20037;-53
2023/08/16 11:40:24;;;;;;;3.42;3.10;;;28.90;52.80;;;;;;5028054;28;20045;-53
2023/08/16 11:43:03;;;;;;;6.63;3.63;;;28.90;52.60;;;;;;5015453;28;20046;-53
2023/08/16 11:45:30;;;;;;;5.93;2.78;;;28.90;52.60;;;;;;5011062;28;20038;-52
2023/08/16 11:47:56;;;;;;;5.00;3.13;;;28.80;53.00;;;;;;5018333;28;20041;-53
2023/08/16 11:50:25;;;;;;;5.40;3.03;;;28.80;53.10;;;;;;5020307;28;20065;-51
2023/08/16 11:53:05;;;;;;;3.35;2.88;;;28.80;52.90;;;;;;5011393;28;20536;-50
2023/08/16 11:55:33;;;;;;;5.15;3.28;;;28.90;53.10;;;;;;5017369;28;20568;-52
2023/08/16 11:58:04;;;;;;;4.63;3.80;;;28.90;53.30;;;;;;5018531;28;20054;-53
2023/08/16 12:00:33;;;;;;;4.55;3.60;;;28.90;52.80;;;;;;5021885;28;20092;-53
2023/08/16 12:03:05;;;;;;;4.47;3.42;;;29.00;53.30;;;;;;5015891;28;20455;-53
2023/08/16 12:05:36;;;;;;;6.03;2.83;;;29.00;53.10;;;;;;5026310;28;20528;-52
2023/08/16 12:08:09;;;;;;;5.00;4.05;;;29.00;53.00;;;;;;5032031;28;20131;-52
2023/08/16 12:10:40;;;;;;;5.53;3.97;;;29.10;52.60;;;;;;5019660;28;20519;-54
2023/08/16 12:13:12;;;;;;;4.57;3.20;;;29.20;52.30;;;;;;5011420;28;20057;-51
2023/08/16 12:15:42;;;;;;;4.07;3.00;;;29.20;52.50;;;;;;5022243;28;20037;-53
2023/08/16 12:18:11;;;;;;;4.68;2.90;;;29.30;52.10;;;;;;5014697;28;20420;-52
2023/08/16 12:20:40;;;;;;;3.15;2.60;;;29.30;51.80;;;;;;5012067;28;20046;-52
2023/08/16 12:23:09;;;;;;;3.78;2.75;;;29.30;51.60;;;;;;5016565;28;20039;-53
2023/08/16 12:25:43;;;;;;;2.67;2.40;;;29.30;51.70;;;;;;5023030;28;20045;-53
2023/08/16 12:28:12;;;;;;;2.97;2.17;;;29.30;51.80;;;;;;5033310;28;20041;-51
2023/08/16 12:30:39;;;;;;;4.18;2.80;;;29.20;52.10;;;;;;5029095;28;20065;-52
2023/08/16 12:33:07;;;;;;;3.75;3.00;;;29.20;52.20;;;;;;5013646;28;20121;-53
2023/08/16 12:35:36;;;;;;;3.05;2.75;;;29.30;52.10;;;;;;5010232;28;20459;-52
2023/08/16 12:38:19;;;;;;;3.42;3.13;;;29.30;52.00;;;;;;5028128;28;20092;-52
2023/08/16 12:40:47;;;;;;;2.72;2.53;;;29.40;52.30;;;;;;5012765;28;20053;-53
2023/08/16 12:43:15;;;;;;;5.35;2.58;;;29.50;52.30;;;;;;5012127;28;20046;-50
2023/08/16 12:45:49;;;;;;;4.13;2.85;;;29.70;52.40;;;;;;5022221;28;20091;-49
2023/08/16 12:48:18;;;;;;;3.35;3.15;;;29.90;52.00;;;;;;5020923;28;20126;-51
2023/08/16 12:50:47;;;;;;;3.97;3.22;;;30.10;51.70;;;;;;5013110;28;20635;-51
2023/08/16 12:53:14;;;;;;;3.15;2.78;;;30.20;51.30;;;;;;5016779;28;20073;-52
2023/08/16 12:55:58;;;;;;;3.40;3.10;;;30.40;50.80;;;;;;5021497;28;20404;-54
2023/08/16 12:58:25;;;;;;;6.75;3.55;;;30.60;50.50;;;;;;5012636;28;20104;-51
2023/08/16 13:01:00;;;;;;;7.80;4.47;;;30.80;49.80;;;;;;5028480;28;20099;-53
2023/08/16 13:03:29;;;;;;;5.50;4.93;;;30.90;49.60;;;;;;5012901;28;20053;-54